Time;durP1;ratioP1;P1;durP2;ratioP2;P2;SDS_P1;SDS_P2;PMS_P1;PMS_P2;Temp;Humidity;BMP_temperature;BMP_pressure;BME280_temperature;BME280_humidity;BME280_pressure;Samples;Min_cycle;Max_cycle;Signal;HPM_P1;HPM_P2
2022/10/21 00:00:30;;;;;;;22.38;15.00;;;;;;;17.41;65.19;100761.16;4966142;28;118125;-70
2022/10/21 00:02:57;;;;;;;24.45;15.07;;;;;;;17.43;65.12;100753.88;4968153;28;124112;-70
2022/10/21 00:05:24;;;;;;;22.52;15.25;;;;;;;17.45;65.27;100757.28;4967860;28;124032;-70
2022/10/21 00:07:51;;;;;;;21.00;15.07;;;;;;;17.46;65.38;100748.25;4949420;28;119063;-70
2022/10/21 00:10:19;;;;;;;22.95;14.73;;;;;;;17.47;65.16;100745.47;4968012;28;120075;-70
2022/10/21 00:12:46;;;;;;;24.70;15.27;;;;;;;17.49;65.35;100748.03;4967614;28;124207;-70
2022/10/21 00:15:13;;;;;;;22.40;14.95;;;;;;;17.50;65.27;100755.09;4967321;28;124534;-70
2022/10/21 00:17:41;;;;;;;20.67;14.02;;;;;;;17.50;65.14;100752.44;4967949;28;120914;-70
2022/10/21 00:20:10;;;;;;;21.13;14.95;;;;;;;17.51;65.11;100756.81;4967303;28;120146;-71
2022/10/21 00:22:38;;;;;;;18.98;14.40;;;;;;;17.51;65.12;100754.13;4967381;28;123881;-70
2022/10/21 00:25:06;;;;;;;23.20;15.30;;;;;;;17.50;65.08;100745.25;4949640;28;122945;-70
2022/10/21 00:27:34;;;;;;;20.77;15.13;;;;;;;17.52;65.33;100753.16;4963927;28;118971;-70
2022/10/21 00:30:04;;;;;;;23.00;14.75;;;;;;;17.52;65.12;100747.81;4932494;28;118836;-70
2022/10/21 00:32:32;;;;;;;21.58;14.48;;;;;;;17.52;65.21;100748.66;4947686;28;123882;-70
2022/10/21 00:34:59;;;;;;;23.33;15.48;;;;;;;17.52;65.24;100750.50;4967985;28;124360;-70
2022/10/21 00:37:29;;;;;;;21.33;15.43;;;;;;;17.53;65.24;100754.84;4967601;28;120248;-70
2022/10/21 00:39:56;;;;;;;23.65;15.15;;;;;;;17.53;65.03;100749.50;4963976;28;119897;-70
2022/10/21 00:42:30;;;;;;;22.23;14.63;;;;;;;17.51;65.25;100746.94;4964176;28;124077;-70
2022/10/21 00:45:03;;;;;;;24.87;15.20;;;;;;;17.50;65.12;100739.03;4964661;28;123449;-70
2022/10/21 00:47:52;;;;;;;21.85;14.27;;;;;;;17.49;64.95;100745.34;4967616;28;119499;-70
2022/10/21 00:50:48;;;;;;;22.00;14.65;;;;;;;17.45;64.88;100746.56;4959796;28;119369;-70
2022/10/21 00:53:16;;;;;;;22.85;14.93;;;;;;;17.46;65.02;100753.59;4956951;28;123787;-70
2022/10/21 00:55:49;;;;;;;22.42;15.45;;;;;;;17.43;65.26;100743.16;4966800;28;124003;-70
2022/10/21 00:58:20;;;;;;;24.52;14.93;;;;;;;17.44;65.05;100744.84;4965433;28;119108;-70
2022/10/21 01:00:49;;;;;;;23.58;14.75;;;;;;;17.44;65.25;100747.53;4967050;28;119640;-70
2022/10/21 01:03:16;;;;;;;22.63;14.98;;;;;;;17.44;65.33;100744.84;4966585;28;123279;-70
2022/10/21 01:05:44;;;;;;;26.58;15.80;;;;;;;17.44;65.17;100736.81;4965956;28;124023;-70
2022/10/21 01:08:11;;;;;;;25.27;15.43;;;;;;;17.43;65.28;100737.78;4957114;28;119724;-70
2022/10/21 01:10:38;;;;;;;22.90;15.73;;;;;;;17.42;65.30;100738.75;4946856;28;119148;-70
2022/10/21 01:13:36;;;;;;;22.15;15.50;;;;;;;17.41;65.17;100735.22;4966741;28;123853;-70
2022/10/21 01:16:21;;;;;;;22.88;15.40;;;;;;;17.43;65.19;100732.44;4947054;28;122842;-71
2022/10/21 01:19:00;;;;;;;22.60;15.10;;;;;;;17.41;64.98;100729.03;4966237;28;119436;-70
2022/10/21 01:21:40;;;;;;;26.92;14.80;;;;;;;17.39;65.18;100720.25;4964180;28;117982;-70
2022/10/21 01:24:52;;;;;;;24.00;16.13;;;;;;;17.38;65.00;100707.84;4948924;28;122287;-70
2022/10/21 01:27:42;;;;;;;26.73;15.13;;;;;;;17.36;65.19;100712.44;5060102;27;96609;-63
2022/10/21 01:30:12;;;;;;;23.83;14.48;;;;;;;17.34;65.08;100701.00;5015588;28;110468;-63
2022/10/21 01:32:58;;;;;;;22.25;15.13;;;;;;;17.32;65.04;100715.34;5023871;28;123803;-61
2022/10/21 01:35:25;;;;;;;23.10;15.60;;;;;;;17.29;65.17;100698.66;5018504;28;124332;-61
2022/10/21 01:38:06;;;;;;;25.75;15.57;;;;;;;17.26;65.09;100694.41;5020262;28;107920;-61
2022/10/21 01:40:44;;;;;;;27.67;15.75;;;;;;;17.25;65.29;100686.50;5023569;28;110802;-61
2022/10/21 01:43:19;;;;;;;22.10;15.82;;;;;;;17.25;65.24;100682.00;5022784;28;124035;-62
2022/10/21 01:46:03;;;;;;;21.15;15.40;;;;;;;17.24;65.23;100684.78;5023869;28;123819;-62
2022/10/21 01:48:36;;;;;;;26.75;15.02;;;;;;;17.23;65.03;100683.91;5017098;28;107402;-62
2022/10/21 01:51:08;;;;;;;24.77;16.10;;;;;;;17.21;65.05;100680.50;5026575;28;109630;-62
2022/10/21 01:53:41;;;;;;;21.40;15.43;;;;;;;17.19;65.35;100674.41;5013705;28;124124;-62
2022/10/21 01:56:10;;;;;;;27.70;16.05;;;;;;;17.16;64.90;100672.00;5021835;28;124423;-62
2022/10/21 01:58:41;;;;;;;26.77;16.13;;;;;;;17.14;65.25;100663.22;5019985;27;106611;-62
2022/10/21 02:01:11;;;;;;;24.88;15.80;;;;;;;17.13;65.08;100662.34;5022562;28;110351;-62
2022/10/21 02:03:42;;;;;;;29.83;16.25;;;;;;;17.11;65.06;100650.06;5022993;28;123560;-62
2022/10/21 02:06:12;;;;;;;24.73;15.98;;;;;;;17.11;65.00;100642.03;5017785;28;125036;-62
2022/10/21 02:08:41;;;;;;;22.83;14.73;;;;;;;17.09;64.88;100650.19;5019674;27;106685;-62
2022/10/21 02:11:10;;;;;;;24.15;14.82;;;;;;;17.07;64.69;100640.56;5025789;28;110660;-62
2022/10/21 02:13:56;;;;;;;22.35;15.82;;;;;;;17.04;64.67;100646.16;5016365;28;123485;-62
2022/10/21 02:16:28;;;;;;;23.90;15.90;;;;;;;17.01;64.84;100635.66;5017576;28;122968;-62
2022/10/21 02:18:58;;;;;;;26.08;15.98;;;;;;;17.00;64.68;100639.31;5025027;28;108004;-62
2022/10/21 02:21:30;;;;;;;27.88;16.60;;;;;;;16.97;64.87;100634.19;5022109;28;109853;-62
2022/10/21 02:24:05;;;;;;;25.08;16.20;;;;;;;16.93;64.75;100636.25;5021106;28;124419;-62
2022/10/21 02:26:32;;;;;;;27.23;15.97;;;;;;;16.91;64.77;100636.38;5025084;28;124499;-62
2022/10/21 02:28:59;;;;;;;24.27;16.30;;;;;;;16.89;64.95;100638.28;5018420;28;107290;-62
2022/10/21 02:31:45;;;;;;;24.20;15.90;;;;;;;16.87;64.99;100634.88;5023014;28;111423;-62
2022/10/21 02:34:46;;;;;;;22.05;15.57;;;;;;;16.82;64.94;100626.38;5021083;28;124213;-62
2022/10/21 02:37:33;;;;;;;23.85;14.95;;;;;;;16.79;64.96;100629.22;5018600;28;124720;-62
2022/10/21 02:40:19;;;;;;;22.45;14.77;;;;;;;16.76;65.11;100618.75;5008446;28;107458;-62
2022/10/21 02:42:52;;;;;;;23.15;15.10;;;;;;;16.74;65.03;100623.38;5002551;28;111404;-62
2022/10/21 02:45:21;;;;;;;23.83;15.07;;;;;;;16.73;64.92;100621.69;5007732;28;125155;-62
2022/10/21 02:47:49;;;;;;;25.35;15.95;;;;;;;16.70;65.06;100637.94;5003195;28;123612;-62
2022/10/21 02:50:16;;;;;;;24.23;14.88;;;;;;;16.69;65.16;100636.25;5008433;28;107897;-62
2022/10/21 02:52:43;;;;;;;22.40;15.82;;;;;;;16.68;64.94;100629.19;5010481;28;110089;-63
2022/10/21 02:55:11;;;;;;;23.05;15.00;;;;;;;16.67;65.24;100630.13;5003046;28;124591;-62
2022/10/21 02:57:38;;;;;;;24.35;15.20;;;;;;;16.66;65.12;100631.97;5002893;28;123940;-63
2022/10/21 03:00:06;;;;;;;25.73;15.45;;;;;;;16.65;65.21;100629.41;5007233;28;108425;-62
2022/10/21 03:02:33;;;;;;;24.80;15.32;;;;;;;16.66;65.05;100633.78;5004437;28;109706;-62
2022/10/21 03:05:00;;;;;;;23.98;15.50;;;;;;;16.64;65.04;100639.25;5003583;28;124336;-62
2022/10/21 03:07:27;;;;;;;21.17;14.98;;;;;;;16.64;65.07;100631.22;5004869;28;124634;-62
2022/10/21 03:09:54;;;;;;;20.42;14.43;;;;;;;16.61;64.82;100627.91;5007878;28;107381;-62
2022/10/21 03:12:21;;;;;;;27.63;16.50;;;;;;;16.60;65.01;100623.56;5000020;28;110760;-62
2022/10/21 03:14:48;;;;;;;22.20;14.70;;;;;;;16.57;65.14;100627.28;4993155;28;122801;-62
2022/10/21 03:17:15;;;;;;;22.73;15.13;;;;;;;16.54;65.17;100623.03;4995732;28;123942;-62
2022/10/21 03:19:47;;;;;;;21.98;15.35;;;;;;;16.52;65.15;100616.94;5009901;28;106566;-62
2022/10/21 03:22:14;;;;;;;26.33;15.07;;;;;;;16.51;65.02;100622.41;5006117;28;110208;-62
2022/10/21 03:24:42;;;;;;;25.20;16.10;;;;;;;16.47;65.08;100615.56;5003851;28;124339;-63
2022/10/21 03:27:09;;;;;;;31.48;16.02;;;;;;;16.46;65.15;100625.44;5007200;28;125043;-62
2022/10/21 03:29:36;;;;;;;23.10;14.50;;;;;;;16.44;65.08;100631.84;5008286;28;108379;-63
2022/10/21 03:32:03;;;;;;;23.52;15.25;;;;;;;16.41;65.13;100624.91;5007657;28;109717;-63
2022/10/21 03:34:30;;;;;;;26.45;15.10;;;;;;;16.39;64.95;100618.81;5005767;28;124117;-62
2022/10/21 03:36:58;;;;;;;26.98;15.15;;;;;;;16.37;65.04;100619.88;5005440;28;123918;-63
2022/10/21 03:39:25;;;;;;;31.88;15.70;;;;;;;16.35;64.97;100617.34;5009608;28;107319;-63
2022/10/21 03:41:52;;;;;;;21.63;14.77;;;;;;;16.32;65.16;100617.56;5004715;28;109945;-63
2022/10/21 03:44:19;;;;;;;25.55;15.00;;;;;;;16.28;64.83;100619.59;5006379;28;123213;-63
2022/10/21 03:46:46;;;;;;;28.67;16.75;;;;;;;16.27;65.06;100619.69;5008383;28;123133;-63
2022/10/21 03:49:13;;;;;;;27.65;16.00;;;;;;;16.23;64.94;100626.22;5004429;28;107881;-63
2022/10/21 03:51:48;;;;;;;29.48;16.38;;;;;;;16.21;65.23;100623.66;4999709;28;110725;-63
2022/10/21 03:54:16;;;;;;;24.55;15.98;;;;;;;16.21;65.33;100620.16;4994046;28;123961;-63
2022/10/21 03:56:43;;;;;;;29.83;16.50;;;;;;;16.20;65.36;100623.78;4999709;28;124114;-63
2022/10/21 03:59:10;;;;;;;25.25;16.35;;;;;;;16.18;65.48;100620.34;5001397;28;107804;-61
2022/10/21 04:01:37;;;;;;;24.38;16.08;;;;;;;16.17;65.46;100608.81;5012045;28;108911;-61
2022/10/21 04:04:05;;;;;;;28.70;16.75;;;;;;;16.17;65.67;100607.97;5001370;28;124653;-61
2022/10/21 04:06:32;;;;;;;26.45;15.68;;;;;;;16.14;65.48;100612.59;5002398;28;124266;-61
2022/10/21 04:08:59;;;;;;;25.90;15.38;;;;;;;16.13;65.42;100605.53;5001238;28;107380;-61
2022/10/21 04:11:26;;;;;;;24.17;15.50;;;;;;;16.10;65.42;100603.06;5008156;28;110722;-61
2022/10/21 04:13:53;;;;;;;26.23;15.80;;;;;;;16.09;65.29;100601.38;5008875;28;123772;-61
2022/10/21 04:16:21;;;;;;;26.38;16.48;;;;;;;16.05;65.33;100605.22;5009212;28;124639;-63
2022/10/21 04:18:49;;;;;;;23.77;15.27;;;;;;;16.04;65.13;100603.50;5008457;28;107416;-65
2022/10/21 04:21:17;;;;;;;26.25;16.23;;;;;;;16.02;65.20;100608.09;5002201;28;110004;-64
2022/10/21 04:23:45;;;;;;;28.48;15.48;;;;;;;16.01;65.11;100603.75;5007522;28;124667;-65
2022/10/21 04:26:12;;;;;;;23.10;15.10;;;;;;;16.01;65.04;100605.53;5011358;28;122903;-64
2022/10/21 04:28:39;;;;;;;25.17;15.95;;;;;;;15.99;65.08;100613.66;5008473;28;108808;-64
2022/10/21 04:31:07;;;;;;;24.75;15.93;;;;;;;15.98;65.00;100606.63;5003480;28;108215;-62
2022/10/21 04:33:34;;;;;;;26.50;16.02;;;;;;;15.94;65.18;100602.47;5003329;28;124022;-63
2022/10/21 04:36:03;;;;;;;24.10;15.80;;;;;;;15.92;65.17;100599.06;5000163;28;124478;-65
2022/10/21 04:38:30;;;;;;;27.10;16.00;;;;;;;15.90;65.10;100601.00;5005508;28;106993;-66
2022/10/21 04:41:01;;;;;;;22.92;15.27;;;;;;;15.88;64.90;100600.22;5001921;28;110004;-64
2022/10/21 04:43:29;;;;;;;25.90;15.60;;;;;;;15.85;64.83;100608.47;5004863;28;124068;-66
2022/10/21 04:45:56;;;;;;;25.98;16.13;;;;;;;15.82;65.00;100603.34;5012391;28;122547;-65
2022/10/21 04:48:23;;;;;;;22.25;15.00;;;;;;;15.80;64.95;100607.94;5006567;28;107524;-62
2022/10/21 04:50:52;;;;;;;24.98;15.10;;;;;;;15.76;65.12;100605.50;5000454;28;110438;-62
2022/10/21 04:53:20;;;;;;;24.25;15.07;;;;;;;15.76;65.12;100600.16;5000274;28;123949;-62
2022/10/21 04:55:51;;;;;;;23.33;15.13;;;;;;;15.74;65.02;100596.72;5007690;28;124241;-62
2022/10/21 04:58:20;;;;;;;23.17;13.63;;;;;;;15.72;64.93;100603.94;5006741;28;107533;-62
2022/10/21 05:00:49;;;;;;;22.75;13.63;;;;;;;15.69;65.00;100604.19;4999106;28;110218;-62
2022/10/21 05:03:18;;;;;;;23.65;14.45;;;;;;;15.67;64.79;100615.91;5004281;28;124728;-62
2022/10/21 05:05:49;;;;;;;25.02;15.13;;;;;;;15.62;64.98;100602.91;5005035;28;124086;-64
2022/10/21 05:08:17;;;;;;;20.33;13.82;;;;;;;15.61;65.19;100611.00;5000934;28;107564;-62
2022/10/21 05:10:44;;;;;;;24.75;14.32;;;;;;;15.58;65.23;100609.41;5008983;28;110083;-64
2022/10/21 05:13:11;;;;;;;23.35;14.27;;;;;;;15.58;65.17;100622.78;5009399;28;123400;-62
2022/10/21 05:15:38;;;;;;;21.25;13.38;;;;;;;15.57;65.24;100611.22;5002737;28;123904;-62
2022/10/21 05:18:05;;;;;;;18.98;12.15;;;;;;;15.56;65.27;100608.69;5003468;28;107501;-62
2022/10/21 05:20:32;;;;;;;20.92;12.55;;;;;;;15.56;65.52;100598.00;5002769;28;110028;-63
2022/10/21 05:23:00;;;;;;;20.63;12.18;;;;;;;15.55;65.49;100590.94;5004444;28;124263;-63
2022/10/21 05:25:27;;;;;;;20.55;13.05;;;;;;;15.56;65.52;100592.66;4988278;28;123194;-63
2022/10/21 05:28:02;;;;;;;19.67;12.93;;;;;;;15.55;65.48;100591.78;5005686;28;107644;-63
2022/10/21 05:30:30;;;;;;;20.00;12.63;;;;;;;15.56;65.51;100592.66;5006206;28;108633;-62
2022/10/21 05:32:57;;;;;;;23.15;13.23;;;;;;;15.56;65.65;100581.97;5002707;28;124552;-63
2022/10/21 05:35:24;;;;;;;21.23;12.30;;;;;;;15.57;65.58;100578.34;5000302;28;123856;-63
2022/10/21 05:37:51;;;;;;;19.48;12.55;;;;;;;15.57;65.57;100573.00;5004378;28;109311;-63
2022/10/21 05:40:18;;;;;;;25.27;13.13;;;;;;;15.56;65.55;100576.66;4998122;28;109961;-63
2022/10/21 05:42:45;;;;;;;20.48;12.48;;;;;;;15.55;65.47;100569.59;5007779;28;124538;-63
2022/10/21 05:45:12;;;;;;;23.63;13.02;;;;;;;15.55;65.60;100574.91;4995727;28;124268;-62
2022/10/21 05:47:40;;;;;;;18.60;12.63;;;;;;;15.54;65.42;100579.41;5010034;28;110578;-63
2022/10/21 05:50:08;;;;;;;21.77;13.00;;;;;;;15.54;65.53;100578.56;5004829;28;110120;-62
2022/10/21 05:52:36;;;;;;;20.48;12.73;;;;;;;15.53;65.43;100577.69;5010134;28;127123;-62
2022/10/21 05:55:05;;;;;;;18.95;12.93;;;;;;;15.53;65.61;100575.03;5000162;28;123770;-62
2022/10/21 05:57:34;;;;;;;18.33;12.30;;;;;;;15.53;65.57;100582.19;5008071;28;109007;-62
2022/10/21 06:00:02;;;;;;;17.27;12.07;;;;;;;15.53;65.39;100574.19;5006254;28;109959;-62
2022/10/21 06:02:31;;;;;;;19.02;12.85;;;;;;;15.52;65.49;100573.34;5008930;28;125122;-62
2022/10/21 06:04:59;;;;;;;17.63;11.80;;;;;;;15.51;65.50;100562.75;5006954;28;124733;-62
2022/10/21 06:07:26;;;;;;;22.98;13.10;;;;;;;15.51;65.60;100563.59;4998633;28;109514;-62
2022/10/21 06:09:53;;;;;;;17.13;11.52;;;;;;;15.51;65.53;100562.75;4997792;28;108347;-62
2022/10/21 06:12:21;;;;;;;22.65;12.85;;;;;;;15.51;65.51;100557.41;5006168;28;123172;-62
2022/10/21 06:14:48;;;;;;;21.90;12.60;;;;;;;15.51;65.70;100562.75;5002188;28;124696;-62
2022/10/21 06:17:15;;;;;;;26.30;12.63;;;;;;;15.52;65.86;100560.00;5006433;28;109184;-62
2022/10/21 06:19:43;;;;;;;19.27;11.82;;;;;;;15.53;65.77;100560.84;5004471;28;110395;-62
2022/10/21 06:22:16;;;;;;;20.40;12.15;;;;;;;15.54;65.98;100562.56;5004451;28;123258;-62
2022/10/21 06:24:44;;;;;;;20.52;12.43;;;;;;;15.56;66.02;100558.81;5006175;28;124228;-62
2022/10/21 06:27:12;;;;;;;21.50;11.77;;;;;;;15.59;66.08;100565.72;5009600;28;109498;-62
2022/10/21 06:29:39;;;;;;;21.25;12.15;;;;;;;15.61;66.06;100574.47;5009387;28;109677;-62
2022/10/21 06:32:06;;;;;;;15.93;10.95;;;;;;;15.63;65.98;100572.56;5006523;28;125418;-62
2022/10/21 06:34:33;;;;;;;20.10;12.70;;;;;;;15.65;66.03;100559.97;5006912;28;124411;-62
2022/10/21 06:37:00;;;;;;;19.70;12.15;;;;;;;15.69;66.11;100576.59;5007553;28;110599;-62
2022/10/21 06:39:29;;;;;;;18.40;11.63;;;;;;;15.70;66.10;100573.00;4999295;28;109659;-62
2022/10/21 06:41:56;;;;;;;24.10;11.95;;;;;;;15.72;66.17;100579.91;5006087;28;124120;-62
2022/10/21 06:44:39;;;;;;;16.92;11.82;;;;;;;15.73;66.14;100581.66;5002901;28;122959;-63
2022/10/21 06:47:06;;;;;;;20.05;11.48;;;;;;;15.76;66.01;100583.25;5007475;28;109655;-63
2022/10/21 06:49:33;;;;;;;17.23;11.82;;;;;;;15.78;66.03;100589.34;5008491;28;109116;-63
2022/10/21 06:52:02;;;;;;;18.88;11.85;;;;;;;15.80;66.22;100592.75;5007468;28;124099;-63
2022/10/21 06:54:29;;;;;;;20.75;12.25;;;;;;;15.82;66.07;100589.97;5009015;28;124049;-62
2022/10/21 06:56:56;;;;;;;18.65;11.63;;;;;;;15.84;65.94;100590.72;5001902;28;109215;-62
2022/10/21 06:59:23;;;;;;;15.95;11.18;;;;;;;15.86;66.17;100596.81;5004983;28;110053;-62
2022/10/21 07:01:50;;;;;;;21.48;11.60;;;;;;;15.88;65.98;100598.44;5013327;28;123842;-62
2022/10/21 07:04:32;;;;;;;21.25;11.50;;;;;;;15.91;66.06;100610.69;5005603;28;124004;-62
2022/10/21 07:07:00;;;;;;;20.13;12.00;;;;;;;15.94;66.18;100623.84;5005314;28;110053;-62
2022/10/21 07:09:27;;;;;;;21.60;12.20;;;;;;;15.95;66.19;100617.53;5001108;28;109704;-62
2022/10/21 07:11:54;;;;;;;21.05;12.05;;;;;;;15.99;66.16;100627.00;5003348;28;124561;-62
2022/10/21 07:14:21;;;;;;;22.88;12.45;;;;;;;16.03;66.33;100638.34;5002109;28;124310;-62
2022/10/21 07:16:50;;;;;;;22.27;12.70;;;;;;;16.05;66.46;100631.94;5004478;28;109412;-61
2022/10/21 07:19:17;;;;;;;19.95;12.32;;;;;;;16.08;66.48;100631.72;5012498;28;109219;-61
2022/10/21 07:21:45;;;;;;;18.95;11.50;;;;;;;16.11;66.46;100636.84;5009292;28;123023;-61
2022/10/21 07:24:12;;;;;;;16.27;11.52;;;;;;;16.17;66.67;100646.22;5006261;28;124475;-61
2022/10/21 07:26:39;;;;;;;20.90;12.18;;;;;;;16.22;66.58;100637.88;4998564;28;109344;-62
2022/10/21 07:29:06;;;;;;;19.73;11.52;;;;;;;16.26;66.73;100642.91;5007452;28;111533;-61
2022/10/21 07:31:36;;;;;;;18.15;11.57;;;;;;;16.31;66.70;100654.13;5013595;28;124062;-62
2022/10/21 07:34:05;;;;;;;21.27;11.25;;;;;;;16.36;66.74;100661.78;5005736;28;123881;-61
2022/10/21 07:36:35;;;;;;;16.88;11.13;;;;;;;16.41;66.76;100664.16;5005524;28;109217;-61
2022/10/21 07:39:05;;;;;;;14.80;11.00;;;;;;;16.46;66.79;100657.50;5004414;28;110233;-61
2022/10/21 07:41:40;;;;;;;20.02;11.75;;;;;;;16.50;66.79;100647.41;5008282;28;124063;-61
2022/10/21 07:44:08;;;;;;;17.13;11.15;;;;;;;16.55;66.67;100651.47;5007366;28;124267;-62
2022/10/21 07:46:40;;;;;;;22.33;11.02;;;;;;;16.60;67.01;100652.97;5004244;28;109346;-61
2022/10/21 07:49:08;;;;;;;18.30;11.02;;;;;;;16.65;66.74;100651.66;5008677;28;109925;-62
2022/10/21 07:51:36;;;;;;;19.55;11.45;;;;;;;16.72;66.81;100641.34;5005965;28;123365;-61
2022/10/21 07:54:04;;;;;;;21.05;11.32;;;;;;;16.76;66.76;100647.31;5004905;28;123963;-62
2022/10/21 07:56:39;;;;;;;21.98;11.05;;;;;;;16.80;66.93;100638.97;5001533;28;109777;-61
2022/10/21 07:59:06;;;;;;;16.20;10.68;;;;;;;16.85;66.86;100631.47;5004945;28;110267;-62
2022/10/21 08:01:42;;;;;;;17.73;10.65;;;;;;;16.90;66.79;100629.31;5005153;28;124142;-61
2022/10/21 08:04:14;;;;;;;18.80;10.45;;;;;;;16.96;66.84;100627.16;5002488;28;124475;-61
2022/10/21 08:06:44;;;;;;;16.05;10.57;;;;;;;17.04;66.97;100635.44;5006649;28;109390;-62
2022/10/21 08:09:13;;;;;;;14.20;10.05;;;;;;;17.09;66.90;100643.97;5001528;28;109865;-63
2022/10/21 08:11:40;;;;;;;15.23;10.75;;;;;;;17.16;66.90;100639.00;4996669;28;124551;-62
2022/10/21 08:14:09;;;;;;;19.42;10.82;;;;;;;17.21;66.72;100640.38;4990971;28;124636;-62
2022/10/21 08:16:36;;;;;;;18.05;10.65;;;;;;;17.27;66.75;100642.59;4993204;28;110213;-63
2022/10/21 08:19:04;;;;;;;21.13;11.05;;;;;;;17.35;66.81;100649.16;5005088;28;109894;-63
2022/10/21 08:21:32;;;;;;;18.75;11.15;;;;;;;17.41;66.83;100633.50;4996145;28;124543;-63
2022/10/21 08:24:03;;;;;;;17.80;11.55;;;;;;;17.47;66.74;100637.53;5009511;28;124022;-63
2022/10/21 08:26:31;;;;;;;22.38;12.00;;;;;;;17.54;66.67;100633.41;4997895;28;109167;-63
2022/10/21 08:29:00;;;;;;;20.92;11.60;;;;;;;17.60;66.78;100632.91;5008647;28;109697;-63
2022/10/21 08:31:27;;;;;;;18.35;11.45;;;;;;;17.66;66.53;100643.13;5000237;28;124112;-63
2022/10/21 08:33:55;;;;;;;16.48;11.13;;;;;;;17.73;66.54;100642.69;4997271;28;123848;-63
2022/10/21 08:36:24;;;;;;;17.98;10.95;;;;;;;17.78;66.49;100645.81;5010098;28;109233;-63
2022/10/21 08:38:53;;;;;;;15.45;10.75;;;;;;;17.79;66.28;100643.03;5008709;28;110237;-63
2022/10/21 08:41:29;;;;;;;18.08;11.30;;;;;;;17.81;66.44;100640.25;4992855;28;124287;-63
2022/10/21 08:44:01;;;;;;;17.13;10.70;;;;;;;17.84;66.17;100640.00;4995566;28;124310;-63
2022/10/21 08:46:43;;;;;;;18.33;10.77;;;;;;;17.88;66.34;100646.84;5011373;28;109252;-63
2022/10/21 08:49:17;;;;;;;18.52;11.15;;;;;;;17.92;66.39;100644.78;5000931;28;109804;-63
2022/10/21 08:52:02;;;;;;;15.75;11.25;;;;;;;17.96;66.40;100649.78;4996785;28;123951;-63
2022/10/21 08:54:44;;;;;;;16.17;9.93;;;;;;;18.01;66.51;100642.22;4999639;28;124547;-63
2022/10/21 08:57:12;;;;;;;15.23;9.55;;;;;;;18.07;66.22;100652.44;4992653;28;109568;-63
2022/10/21 08:59:41;;;;;;;17.02;10.30;;;;;;;18.12;66.38;100653.91;5000270;28;110257;-63
2022/10/21 09:02:11;;;;;;;16.52;10.10;;;;;;;18.15;66.12;100653.66;5002648;28;123915;-64
2022/10/21 09:05:17;;;;;;;15.18;10.68;;;;;;;18.18;66.12;100658.81;5007425;28;124675;-63
2022/10/21 09:08:03;;;;;;;18.27;11.27;;;;;;;18.19;65.87;100655.13;5001926;28;110015;-63
2022/10/21 09:10:41;;;;;;;18.10;11.10;;;;;;;18.22;66.09;100655.75;5006568;28;109651;-63
2022/10/21 09:13:24;;;;;;;17.40;10.63;;;;;;;18.25;66.09;100660.00;5005209;28;123911;-63
2022/10/21 09:15:51;;;;;;;20.48;10.38;;;;;;;18.29;65.96;100666.84;5011477;28;124272;-63
2022/10/21 09:18:39;;;;;;;17.13;10.30;;;;;;;18.31;65.86;100651.47;5008571;28;109023;-63
2022/10/21 09:21:18;;;;;;;16.40;9.65;;;;;;;18.33;65.76;100646.84;4996647;28;110734;-62
2022/10/21 09:24:00;;;;;;;16.27;10.77;;;;;;;18.34;65.83;100659.25;5009599;28;124268;-62
2022/10/21 09:26:37;;;;;;;19.00;11.13;;;;;;;18.37;65.96;100669.75;5002466;28;122955;-63
2022/10/21 09:29:30;;;;;;;15.30;10.68;;;;;;;18.40;65.75;100674.00;5003042;28;109189;-62
2022/10/21 09:32:18;;;;;;;14.52;9.80;;;;;;;18.42;65.98;100667.53;4998876;28;109999;-63
2022/10/21 09:34:45;;;;;;;16.20;10.00;;;;;;;18.45;65.74;100667.28;5004126;28;124490;-63
2022/10/21 09:37:20;;;;;;;17.83;9.60;;;;;;;18.48;65.93;100653.63;5000628;28;124017;-63
2022/10/21 09:39:51;;;;;;;;;;;;;;;18.47;65.79;100659.97;5004732;28;109005;-62
2022/10/21 09:42:18;;;;;;;17.20;9.93;;;;;;;18.52;65.83;100672.16;5006488;28;108674;-63
2022/10/21 09:45:17;;;;;;;14.95;9.40;;;;;;;18.55;65.95;100688.00;5004894;28;124094;-63
2022/10/21 09:47:52;;;;;;;18.10;9.77;;;;;;;18.57;65.83;100680.66;5008412;28;124025;-63
2022/10/21 09:50:19;;;;;;;16.92;9.60;;;;;;;18.61;65.72;100682.13;5010422;28;109174;-63
2022/10/21 09:52:56;;;;;;;14.63;10.43;;;;;;;18.64;66.00;100676.50;5006807;28;108349;-63
2022/10/21 09:55:25;;;;;;;19.48;10.32;;;;;;;18.69;65.96;100668.94;5011488;28;123281;-62
2022/10/21 09:58:05;;;;;;;18.80;10.98;;;;;;;18.77;66.19;100665.63;4992920;28;124513;-62
2022/10/21 10:00:54;;;;;;;18.83;10.65;;;;;;;18.83;66.25;100666.00;4999700;28;110061;-62
2022/10/21 10:04:09;;;;;;;15.02;10.15;;;;;;;18.91;66.10;100662.69;5010005;28;109799;-63
2022/10/21 10:06:41;;;;;;;16.52;10.13;;;;;;;18.99;66.16;100672.81;4985904;28;124049;-63
2022/10/21 10:09:16;;;;;;;13.77;9.70;;;;;;;19.08;66.22;100680.09;5004006;28;124497;-62
2022/10/21 10:12:03;;;;;;;15.43;9.07;;;;;;;19.13;66.12;100677.84;5002953;28;109345;-62
2022/10/21 10:14:37;;;;;;;12.95;7.97;;;;;;;19.21;66.17;100680.75;5008615;28;109321;-62
2022/10/21 10:17:30;;;;;;;13.80;7.68;;;;;;;19.27;66.19;100690.13;5003334;28;123939;-62
2022/10/21 10:20:03;;;;;;;11.07;7.57;;;;;;;19.34;66.07;100682.38;5007947;28;124617;-62
2022/10/21 10:22:58;;;;;;;10.32;7.18;;;;;;;19.38;65.91;100679.34;5004008;28;109304;-62
2022/10/21 10:25:34;;;;;;;11.43;6.43;;;;;;;19.46;65.84;100686.75;5003629;28;108829;-62
2022/10/21 10:28:00;;;;;;;;;;;;;;;19.49;65.96;100689.13;5001878;28;124101;-62
2022/10/21 10:30:46;;;;;;;9.93;5.65;;;;;;;19.60;65.74;100691.75;5010122;28;124982;-62
2022/10/21 10:33:16;;;;;;;9.38;5.90;;;;;;;19.68;65.62;100698.31;5001213;28;109581;-62
2022/10/21 10:35:49;;;;;;;12.88;6.70;;;;;;;19.74;65.51;100697.81;5012320;28;109165;-62
2022/10/21 10:38:32;;;;;;;15.75;6.68;;;;;;;19.78;65.53;100699.28;5009045;28;125426;-62
2022/10/21 10:41:17;;;;;;;10.57;7.05;;;;;;;19.83;65.46;100710.47;5008071;28;123812;-62
2022/10/21 10:43:52;;;;;;;15.18;7.15;;;;;;;19.87;65.37;100703.84;5006718;28;109264;-62
2022/10/21 10:46:34;;;;;;;10.93;6.53;;;;;;;19.91;65.29;100694.53;5009455;28;109018;-62
2022/10/21 10:49:16;;;;;;;9.98;6.55;;;;;;;19.96;65.27;100697.66;5008604;28;123919;-63
2022/10/21 10:51:46;;;;;;;11.48;6.70;;;;;;;20.01;65.25;100700.81;5001663;28;124428;-63
2022/10/21 10:54:27;;;;;;;12.10;6.80;;;;;;;20.09;65.18;100693.91;5011539;28;109856;-63
2022/10/21 10:57:18;;;;;;;11.13;6.50;;;;;;;20.13;64.94;100706.09;4995282;28;109849;-63
2022/10/21 10:59:54;;;;;;;13.15;6.60;;;;;;;20.18;64.89;100695.78;5010893;28;123875;-63
2022/10/21 11:02:43;;;;;;;11.90;6.63;;;;;;;20.22;64.85;100691.84;5004391;28;124729;-63
2022/10/21 11:05:27;;;;;;;10.98;6.55;;;;;;;20.29;64.84;100703.78;4978421;28;107999;-63
2022/10/21 11:08:12;;;;;;;10.10;6.25;;;;;;;20.36;64.89;100693.31;4994777;28;109768;-63
2022/10/21 11:10:50;;;;;;;9.20;5.80;;;;;;;20.43;64.74;100698.00;5008620;28;124985;-63
2022/10/21 11:13:19;;;;;;;9.60;6.20;;;;;;;20.50;64.71;100689.41;5000453;28;124297;-63
2022/10/21 11:16:10;;;;;;;13.65;6.43;;;;;;;20.58;64.62;100686.88;5004676;28;109161;-63
2022/10/21 11:18:47;;;;;;;10.02;5.90;;;;;;;20.64;64.35;100691.72;5017175;27;108113;-63
2022/10/21 11:21:44;;;;;;;11.50;5.63;;;;;;;20.70;64.04;100679.53;5008742;28;124100;-63
2022/10/21 11:24:46;;;;;;;7.13;5.18;;;;;;;20.75;64.04;100678.13;5003285;28;123896;-63
2022/10/21 11:27:22;;;;;;;10.57;5.35;;;;;;;20.82;64.18;100666.84;5008400;28;109386;-63